| time (UTC) | temp F | wind direction | speed MPH | gust MPH | rain 1hr in | rain 24hr in | rain mn in | humidity % | barometer mb |
| 20260503232014 | 53 | 319 | 1.0 | 6.0 | 0.00 | 0.00 | 0.00 | 47 | 1019.1 |
| 20260503231520 | 53 | 314 | 2.0 | 6.0 | 0.00 | 0.00 | 0.00 | 48 | 1019.0 |
| 20260503231014 | 53 | 212 | 2.0 | 8.0 | 0.00 | 0.00 | 0.00 | 47 | 1019.0 |
| 20260503230513 | 53 | 319 | 3.0 | 8.0 | 0.00 | 0.00 | 0.00 | 48 | 1019.0 |
| 20260503230011 | 53 | 136 | 1.0 | 7.0 | 0.00 | 0.00 | 0.00 | 48 | 1019.1 |
| 20260503225515 | 53 | 121 | 2.0 | 4.0 | 0.00 | 0.00 | 0.00 | 48 | 1019.2 |
| 20260503225011 | 53 | 178 | 1.0 | 3.0 | 0.00 | 0.00 | 0.00 | 48 | 1019.4 |
| 20260503224510 | 53 | 201 | 1.0 | 5.0 | 0.00 | 0.00 | 0.00 | 47 | 1019.5 |
| 20260503224016 | 53 | 221 | 2.0 | 8.0 | 0.00 | 0.00 | 0.00 | 48 | 1019.5 |
| 20260503223512 | 53 | 144 | 2.0 | 8.0 | 0.00 | 0.00 | 0.00 | 50 | 1019.4 |
| 20260503223010 | 53 | 235 | 3.0 | 5.0 | 0.00 | 0.00 | 0.00 | 48 | 1019.4 |
| 20260503222508 | 53 | 246 | 0.0 | 5.0 | 0.00 | 0.00 | 0.00 | 50 | 1019.5 |
| 20260503222007 | 52 | 191 | 1.0 | 7.0 | 0.00 | 0.00 | 0.00 | 50 | 1019.5 |
| 20260503221507 | 52 | 233 | 2.0 | 8.0 | 0.00 | 0.00 | 0.00 | 50 | 1019.5 |
| 20260503221007 | 52 | 297 | 3.0 | 8.0 | 0.00 | 0.00 | 0.00 | 49 | 1019.6 |
| 20260503220509 | 52 | 234 | 3.0 | 10.0 | 0.00 | 0.00 | 0.00 | 48 | 1019.7 |
| 20260503220006 | 52 | 279 | 6.0 | 10.0 | 0.00 | 0.00 | 0.00 | 49 | 1019.7 |
| 20260503215507 | 52 | 263 | 1.0 | 7.0 | 0.00 | 0.00 | 0.00 | 50 | 1019.7 |
| 20260503215009 | 52 | 13 | 3.0 | 9.0 | 0.00 | 0.00 | 0.00 | 49 | 1019.7 |
| 20260503214508 | 52 | 277 | 1.0 | 5.0 | 0.00 | 0.00 | 0.00 | 48 | 1019.7 |
| 20260503214007 | 52 | 171 | 2.0 | 6.0 | 0.00 | 0.00 | 0.00 | 48 | 1019.8 |
| 20260503213505 | 52 | 221 | 3.0 | 9.0 | 0.00 | 0.00 | 0.00 | 49 | 1019.7 |
| 20260503213009 | 52 | 282 | 1.0 | 9.0 | 0.00 | 0.00 | 0.00 | 48 | 1019.8 |
| 20260503212505 | 52 | 261 | 1.0 | 9.0 | 0.00 | 0.00 | 0.00 | 48 | 1019.8 |
| 20260503212004 | 52 | 263 | 1.0 | 9.0 | 0.00 | 0.00 | 0.00 | 50 | 1019.7 |
| 20260503211504 | 52 | 168 | 3.0 | 6.0 | 0.00 | 0.00 | 0.00 | 49 | 1019.7 |
| 20260503211003 | 51 | 309 | 1.0 | 5.0 | 0.00 | 0.00 | 0.00 | 50 | 1019.7 |
| 20260503210503 | 51 | 313 | 2.0 | 4.0 | 0.00 | 0.00 | 0.00 | 51 | 1019.8 |
| 20260503210002 | 51 | 196 | 1.0 | 6.0 | 0.00 | 0.00 | 0.00 | 50 | 1019.8 |
| 20260503205501 | 51 | 313 | 2.0 | 6.0 | 0.00 | 0.00 | 0.00 | 50 | 1019.8 |
| 20260503205100 | 51 | 128 | 1.0 | 4.0 | 0.00 | 0.00 | 0.00 | 50 | 1019.9 |
| 20260503205003 | 51 | 116 | 1.0 | 4.0 | 0.00 | 0.00 | 0.00 | 50 | 1019.9 |
| 20260503204605 | 51 | 116 | 2.0 | 5.0 | 0.00 | 0.00 | 0.00 | 49 | 1019.8 |
| 20260503204059 | 51 | 211 | 1.0 | 5.0 | 0.00 | 0.00 | 0.00 | 50 | 1019.8 |
| 20260503203558 | 51 | 273 | 2.0 | 8.0 | 0.00 | 0.00 | 0.00 | 52 | 1019.8 |
| 20260503203058 | 51 | 307 | 3.0 | 8.0 | 0.00 | 0.00 | 0.00 | 51 | 1019.8 |
| 20260503202556 | 51 | 294 | 3.0 | 9.0 | 0.00 | 0.00 | 0.00 | 52 | 1019.8 |
| 20260503202059 | 51 | 314 | 3.0 | 9.0 | 0.00 | 0.00 | 0.00 | 51 | 1019.8 |
| 20260503201556 | 51 | 323 | 2.0 | 9.0 | 0.00 | 0.00 | 0.00 | 51 | 1019.7 |
| 20260503201056 | 51 | 319 | 4.0 | 9.0 | 0.00 | 0.00 | 0.00 | 53 | 1019.8 |
| 20260503200556 | 51 | 238 | 2.0 | 8.0 | 0.00 | 0.00 | 0.00 | 52 | 1019.7 |
| 20260503200053 | 51 | 246 | 2.0 | 8.0 | 0.00 | 0.00 | 0.00 | 53 | 1019.6 |
| 20260503195553 | 50 | 313 | 2.0 | 4.0 | 0.00 | 0.00 | 0.00 | 53 | 1019.7 |
| 20260503195051 | 51 | 314 | 3.0 | 5.0 | 0.00 | 0.00 | 0.00 | 51 | 1019.6 |
| 20260503194550 | 51 | 304 | 2.0 | 5.0 | 0.00 | 0.00 | 0.00 | 50 | 1019.6 |
| 20260503194049 | 51 | 315 | 3.0 | 5.0 | 0.00 | 0.00 | 0.00 | 52 | 1019.7 |
| 20260503193548 | 51 | 269 | 2.0 | 5.0 | 0.00 | 0.00 | 0.00 | 53 | 1019.7 |
| 20260503193102 | 51 | 351 | 2.0 | 4.0 | 0.00 | 0.00 | 0.00 | 50 | 1019.7 |
| 20260503192546 | 51 | 111 | 0.0 | 5.0 | 0.00 | 0.00 | 0.00 | 50 | 1019.7 |
| 20260503192044 | 51 | 195 | 2.0 | 5.0 | 0.00 | 0.00 | 0.00 | 51 | 1019.7 |
| 20260503191545 | 51 | 226 | 1.0 | 5.0 | 0.00 | 0.00 | 0.00 | 51 | 1019.7 |
| 20260503191041 | 51 | 90 | 2.0 | 5.0 | 0.00 | 0.00 | 0.00 | 50 | 1019.7 |
| 20260503190540 | 51 | 241 | 1.0 | 3.0 | 0.00 | 0.00 | 0.00 | 51 | 1019.8 |
| 20260503190049 | 50 | 242 | 1.0 | 3.0 | 0.00 | 0.00 | 0.00 | 52 | 1019.7 |
| 20260503185538 | 50 | 89 | 0.0 | 3.0 | 0.00 | 0.00 | 0.00 | 52 | 1019.7 |
| 20260503185040 | 50 | 169 | 0.0 | 3.0 | 0.00 | 0.00 | 0.00 | 53 | 1019.7 |
| 20260503184535 | 50 | 85 | 0.0 | 4.0 | 0.00 | 0.00 | 0.00 | 53 | 1019.7 |
| 20260503184034 | 49 | 40 | 2.0 | 4.0 | 0.00 | 0.00 | 0.00 | 52 | 1019.7 |
| 20260503183533 | 49 | 143 | 2.0 | 4.0 | 0.00 | 0.00 | 0.00 | 53 | 1019.7 |
| 20260503183032 | 49 | 98 | 1.0 | 3.0 | 0.00 | 0.00 | 0.00 | 51 | 1019.7 |
| 20260503182531 | 48 | 108 | 1.0 | 4.0 | 0.00 | 0.00 | 0.00 | 55 | 1019.6 |
| 20260503182028 | 48 | 196 | 0.0 | 3.0 | 0.00 | 0.00 | 0.00 | 57 | 1019.6 |
| 20260503181527 | 48 | 196 | 1.0 | 3.0 | 0.00 | 0.00 | 0.00 | 58 | 1019.6 |
| 20260503181026 | 48 | 240 | 0.0 | 2.0 | 0.00 | 0.00 | 0.00 | 61 | 1019.6 |
| 20260503180525 | 47 | 222 | 0.0 | 0.0 | 0.00 | 0.00 | 0.00 | 61 | 1019.6 |
| 20260503180035 | 47 | 228 | 0.0 | 0.0 | 0.00 | 0.00 | 0.00 | 63 | 1019.5 |
| 20260503175521 | 46 | 205 | 0.0 | 0.0 | 0.00 | 0.00 | 0.00 | 64 | 1019.6 |
| 20260503175019 | 46 | 207 | 0.0 | 3.0 | 0.00 | 0.00 | 0.00 | 63 | 1019.6 |
| 20260503174518 | 46 | 177 | 1.0 | 3.0 | 0.00 | 0.00 | 0.00 | 64 | 1019.5 |
| 20260503174016 | 45 | 180 | 0.0 | 4.0 | 0.00 | 0.00 | 0.00 | 64 | 1019.6 |
| 20260503173515 | 45 | 191 | 0.0 | 4.0 | 0.00 | 0.00 | 0.00 | 64 | 1019.6 |
| 20260503173013 | 45 | 174 | 0.0 | 3.0 | 0.00 | 0.00 | 0.00 | 65 | 1019.6 |
| 20260503172511 | 45 | 98 | 2.0 | 3.0 | 0.00 | 0.00 | 0.00 | 65 | 1019.5 |
| 20260503172010 | 44 | 133 | 0.0 | 2.0 | 0.00 | 0.00 | 0.00 | 68 | 1019.5 |
| 20260503171511 | 43 | 181 | 0.0 | 4.0 | 0.00 | 0.00 | 0.00 | 69 | 1019.6 |
| 20260503171007 | 43 | 103 | 0.0 | 4.0 | 0.00 | 0.00 | 0.00 | 69 | 1019.7 |
| 20260503170506 | 42 | 50 | 0.0 | 2.0 | 0.00 | 0.00 | 0.00 | 71 | 1019.8 |
| 20260503150537 | 31 | 57 | 0.0 | 2.0 | 0.00 | 0.00 | 0.00 | 91 | 1019.1 |
| 20260503131023 | 28 | 55 | 0.0 | 0.0 | 0.00 | 0.00 | 0.00 | 91 | 1018.8 |
| 20260503130521 | 28 | 55 | 0.0 | 0.0 | 0.00 | 0.00 | 0.00 | 91 | 1018.6 |
| 20260503110513 | 29 | 261 | 0.0 | 0.0 | 0.00 | 0.00 | 0.00 | 92 | 1017.9 |
| 20260503081549 | 33 | 261 | 0.0 | 0.0 | 0.00 | 0.00 | 0.00 | 85 | 1016.5 |
| 20260503081046 | 33 | 261 | 0.0 | 0.0 | 0.00 | 0.00 | 0.00 | 85 | 1016.5 |
| 20260503080548 | 33 | 261 | 0.0 | 0.0 | 0.00 | 0.00 | 0.00 | 85 | 1016.5 |
| 20260503072538 | 35 | 261 | 0.0 | 0.0 | 0.00 | 0.00 | 0.00 | 82 | 1016.4 |
| 20260503072036 | 35 | 261 | 0.0 | 0.0 | 0.00 | 0.00 | 0.00 | 81 | 1016.4 |
| 20260503071543 | 36 | 261 | 0.0 | 0.0 | 0.00 | 0.00 | 0.00 | 81 | 1016.3 |
| 20260503071035 | 36 | 261 | 0.0 | 0.0 | 0.00 | 0.00 | 0.00 | 81 | 1016.2 |
| 20260503070535 | 36 | 261 | 0.0 | 0.0 | 0.00 | 0.00 | 0.00 | 80 | 1016.1 |
| 20260503055030 | 41 | 261 | 0.0 | 0.0 | 0.00 | 0.00 | 0.00 | 71 | 1015.5 |
| 20260503054536 | 41 | 261 | 0.0 | 0.0 | 0.00 | 0.00 | 0.00 | 70 | 1015.5 |
| 20260503054029 | 42 | 261 | 0.0 | 0.0 | 0.00 | 0.00 | 0.00 | 70 | 1015.5 |
| 20260503053528 | 42 | 261 | 0.0 | 2.0 | 0.00 | 0.00 | 0.00 | 69 | 1015.4 |
| 20260503053027 | 42 | 261 | 0.0 | 3.0 | 0.00 | 0.00 | 0.00 | 69 | 1015.5 |
| 20260503052529 | 43 | 261 | 0.0 | 3.0 | 0.00 | 0.00 | 0.00 | 68 | 1015.5 |
| 20260503052027 | 43 | 232 | 0.0 | 2.0 | 0.00 | 0.00 | 0.00 | 68 | 1015.4 |
| 20260503051526 | 43 | 232 | 0.0 | 4.0 | 0.00 | 0.00 | 0.00 | 68 | 1015.3 |
| 20260503051025 | 43 | 211 | 0.0 | 4.0 | 0.00 | 0.00 | 0.00 | 68 | 1015.2 |
| 20260503050526 | 44 | 290 | 2.0 | 4.0 | 0.00 | 0.00 | 0.00 | 67 | 1015.2 |
| 20260503050024 | 44 | 311 | 1.0 | 7.0 | 0.00 | 0.00 | 0.00 | 67 | 1015.2 |
| 20260503045527 | 44 | 238 | 1.0 | 7.0 | 0.00 | 0.00 | 0.00 | 66 | 1015.1 |
| 20260503045023 | 44 | 291 | 2.0 | 7.0 | 0.00 | 0.00 | 0.00 | 66 | 1015.0 |
| 20260503044522 | 44 | 278 | 2.0 | 8.0 | 0.00 | 0.00 | 0.00 | 65 | 1014.8 |
| 20260503044020 | 44 | 294 | 2.0 | 8.0 | 0.00 | 0.00 | 0.00 | 65 | 1014.8 |
| 20260503043520 | 45 | 302 | 2.0 | 7.0 | 0.00 | 0.00 | 0.00 | 64 | 1014.7 |
| 20260503043020 | 45 | 257 | 2.0 | 6.0 | 0.00 | 0.00 | 0.00 | 63 | 1014.5 |
| 20260503042521 | 45 | 235 | 2.0 | 7.0 | 0.00 | 0.00 | 0.00 | 63 | 1014.5 |
| 20260503042018 | 45 | 241 | 1.0 | 4.0 | 0.00 | 0.00 | 0.00 | 64 | 1014.6 |
| 20260503041519 | 45 | 180 | 1.0 | 7.0 | 0.00 | 0.00 | 0.00 | 62 | 1014.5 |
| 20260503041017 | 45 | 211 | 2.0 | 7.0 | 0.00 | 0.00 | 0.00 | 62 | 1014.4 |
| 20260503040520 | 45 | 321 | 2.0 | 7.0 | 0.00 | 0.00 | 0.00 | 62 | 1014.5 |
| 20260503040016 | 46 | 240 | 2.0 | 6.0 | 0.00 | 0.00 | 0.00 | 62 | 1014.3 |
| 20260503035517 | 46 | 210 | 1.0 | 9.0 | 0.00 | 0.00 | 0.00 | 61 | 1014.3 |
| 20260503035015 | 46 | 257 | 3.0 | 9.0 | 0.00 | 0.00 | 0.00 | 61 | 1014.3 |
| 20260503034517 | 47 | 9 | 2.0 | 7.0 | 0.00 | 0.00 | 0.00 | 61 | 1014.2 |
| 20260503034015 | 47 | 252 | 2.0 | 7.0 | 0.00 | 0.00 | 0.00 | 61 | 1014.1 |
| 20260503033513 | 47 | 234 | 2.0 | 9.0 | 0.00 | 0.00 | 0.00 | 60 | 1014.0 |
| 20260503033023 | 48 | 238 | 2.0 | 4.0 | 0.00 | 0.00 | 0.00 | 58 | 1013.9 |
| 20260503032510 | 48 | 298 | 1.0 | 9.0 | 0.00 | 0.00 | 0.00 | 57 | 1013.7 |
| 20260503032015 | 48 | 239 | 2.0 | 9.0 | 0.00 | 0.00 | 0.00 | 57 | 1013.5 |
| 20260503031611 | 49 | 298 | 1.0 | 6.0 | 0.00 | 0.00 | 0.00 | 58 | 1013.5 |
| 20260503031009 | 49 | 229 | 1.0 | 6.0 | 0.00 | 0.00 | 0.00 | 55 | 1013.5 |
| 20260503030508 | 49 | 261 | 1.0 | 7.0 | 0.00 | 0.00 | 0.00 | 55 | 1013.4 |
| 20260503030008 | 50 | 285 | 2.0 | 8.0 | 0.00 | 0.00 | 0.00 | 54 | 1013.3 |
| 20260503025507 | 50 | 266 | 3.0 | 8.0 | 0.00 | 0.00 | 0.00 | 54 | 1013.2 |
| 20260503025007 | 50 | 258 | 2.0 | 8.0 | 0.00 | 0.00 | 0.00 | 54 | 1013.1 |
| 20260503024506 | 50 | 178 | 1.0 | 4.0 | 0.00 | 0.00 | 0.00 | 55 | 1013.1 |
| 20260503024008 | 50 | 201 | 1.0 | 4.0 | 0.00 | 0.00 | 0.00 | 55 | 1013.0 |
| 20260503023506 | 49 | 34 | 1.0 | 9.0 | 0.00 | 0.00 | 0.00 | 54 | 1012.9 |
| 20260503023003 | 50 | 184 | 4.0 | 9.0 | 0.00 | 0.00 | 0.00 | 54 | 1012.9 |
| 20260503022503 | 50 | 220 | 2.0 | 8.0 | 0.00 | 0.00 | 0.00 | 55 | 1012.8 |
| 20260503022003 | 50 | 269 | 2.0 | 11.0 | 0.00 | 0.00 | 0.00 | 55 | 1012.8 |
| 20260503021502 | 50 | 262 | 3.0 | 11.0 | 0.00 | 0.00 | 0.00 | 54 | 1012.6 |
| 20260503021001 | 51 | 271 | 3.0 | 10.0 | 0.00 | 0.00 | 0.00 | 54 | 1012.6 |
| 20260503020502 | 51 | 285 | 2.0 | 12.0 | 0.00 | 0.00 | 0.00 | 53 | 1012.4 |
| 20260503015603 | 51 | 225 | 1.0 | 16.0 | 0.00 | 0.00 | 0.00 | 53 | 1012.2 |
| 20260503015058 | 51 | 285 | 4.0 | 16.0 | 0.00 | 0.00 | 0.00 | 52 | 1012.1 |
| 20260503014624 | 52 | 266 | 5.0 | 16.0 | 0.00 | 0.00 | 0.00 | 51 | 1012.1 |
| 20260503014056 | 52 | 250 | 4.0 | 9.0 | 0.00 | 0.00 | 0.00 | 50 | 1011.8 |
| 20260503013556 | 53 | 66 | 3.0 | 8.0 | 0.00 | 0.00 | 0.00 | 51 | 1011.5 |
| 20260503013055 | 53 | 198 | 2.0 | 10.0 | 0.00 | 0.00 | 0.00 | 48 | 1011.5 |
| 20260503012555 | 53 | 202 | 2.0 | 11.0 | 0.00 | 0.00 | 0.00 | 47 | 1011.4 |
| 20260503012053 | 53 | 157 | 3.0 | 11.0 | 0.00 | 0.00 | 0.00 | 46 | 1011.3 |
| 20260503011611 | 52 | 157 | 2.0 | 14.0 | 0.00 | 0.00 | 0.00 | 47 | 1011.3 |
| 20260503011053 | 52 | 207 | 4.0 | 14.0 | 0.00 | 0.00 | 0.00 | 47 | 1011.3 |
| 20260503010553 | 52 | 204 | 5.0 | 12.0 | 0.00 | 0.00 | 0.00 | 45 | 1011.2 |
| 20260503010055 | 53 | 196 | 4.0 | 14.0 | 0.00 | 0.00 | 0.00 | 45 | 1011.2 |
| 20260503005552 | 53 | 211 | 4.0 | 14.0 | 0.00 | 0.00 | 0.00 | 44 | 1011.1 |
| 20260503005050 | 53 | 199 | 4.0 | 15.0 | 0.00 | 0.00 | 0.00 | 44 | 1011.0 |
| 20260503004559 | 53 | 217 | 6.0 | 15.0 | 0.00 | 0.00 | 0.00 | 43 | 1011.0 |
| 20260503004049 | 53 | 195 | 4.0 | 12.0 | 0.00 | 0.00 | 0.00 | 43 | 1010.8 |
| 20260503003548 | 53 | 273 | 4.0 | 12.0 | 0.00 | 0.00 | 0.00 | 41 | 1010.8 |
| 20260503003048 | 54 | 296 | 3.0 | 14.0 | 0.00 | 0.00 | 0.00 | 42 | 1010.8 |
| 20260503002548 | 54 | 220 | 4.0 | 14.0 | 0.00 | 0.00 | 0.00 | 43 | 1010.6 |
| 20260503002047 | 54 | 228 | 5.0 | 15.0 | 0.00 | 0.00 | 0.00 | 41 | 1010.6 |
| 20260503001550 | 54 | 226 | 2.0 | 13.0 | 0.00 | 0.00 | 0.00 | 41 | 1010.5 |
| 20260503001047 | 54 | 163 | 3.0 | 11.0 | 0.00 | 0.00 | 0.00 | 42 | 1010.4 |
| 20260503000545 | 55 | 232 | 4.0 | 10.0 | 0.00 | 0.00 | 0.00 | 40 | 1010.2 |
| 20260502235544 | 56 | 190 | 4.0 | 9.0 | 0.00 | 0.00 | 0.00 | 43 | 1009.9 |
| 20260502235042 | 55 | 167 | 2.0 | 10.0 | 0.00 | 0.00 | 0.00 | 41 | 1009.9 |
| 20260502234545 | 56 | 142 | 3.0 | 11.0 | 0.00 | 0.00 | 0.00 | 40 | 1009.9 |
| 20260502234045 | 56 | 173 | 2.0 | 10.0 | 0.00 | 0.00 | 0.00 | 41 | 1009.9 |
| 20260502233541 | 55 | 217 | 3.0 | 10.0 | 0.00 | 0.00 | 0.00 | 41 | 1009.9 |
| 20260502233044 | 55 | 163 | 2.0 | 13.0 | 0.00 | 0.00 | 0.00 | 43 | 1009.8 |
| 20260502232539 | 54 | 192 | 2.0 | 13.0 | 0.00 | 0.00 | 0.00 | 44 | 1009.8 |